sensor_id;sensor_type;location;lat;lon;timestamp;P1;durP1;ratioP1;P2;durP2;ratioP2
39104;SDS011;46464;51.154;13.812;2023-08-31T00:01:22;5.25;;;3.70;;
39104;SDS011;46464;51.154;13.812;2023-08-31T00:03:49;6.22;;;3.88;;
39104;SDS011;46464;51.154;13.812;2023-08-31T00:06:15;4.50;;;3.60;;
39104;SDS011;46464;51.154;13.812;2023-08-31T00:08:42;5.38;;;4.25;;
39104;SDS011;46464;51.154;13.812;2023-08-31T00:11:08;5.03;;;3.90;;
39104;SDS011;46464;51.154;13.812;2023-08-31T00:13:35;5.10;;;3.83;;
39104;SDS011;46464;51.154;13.812;2023-08-31T00:16:01;6.93;;;3.90;;
39104;SDS011;46464;51.154;13.812;2023-08-31T00:18:28;6.63;;;4.10;;
39104;SDS011;46464;51.154;13.812;2023-08-31T00:20:55;5.88;;;4.47;;
39104;SDS011;46464;51.154;13.812;2023-08-31T00:25:49;5.70;;;3.72;;
39104;SDS011;46464;51.154;13.812;2023-08-31T00:28:17;4.40;;;3.60;;
39104;SDS011;46464;51.154;13.812;2023-08-31T00:30:44;5.05;;;3.75;;
39104;SDS011;46464;51.154;13.812;2023-08-31T00:33:12;4.35;;;3.70;;
39104;SDS011;46464;51.154;13.812;2023-08-31T00:35:40;4.72;;;3.60;;
39104;SDS011;46464;51.154;13.812;2023-08-31T00:38:12;4.63;;;3.78;;
39104;SDS011;46464;51.154;13.812;2023-08-31T00:40:43;4.35;;;3.42;;
39104;SDS011;46464;51.154;13.812;2023-08-31T00:43:15;4.95;;;3.92;;
39104;SDS011;46464;51.154;13.812;2023-08-31T00:45:42;4.38;;;3.40;;
39104;SDS011;46464;51.154;13.812;2023-08-31T00:48:11;7.05;;;3.72;;
39104;SDS011;46464;51.154;13.812;2023-08-31T00:50:38;4.57;;;3.30;;
39104;SDS011;46464;51.154;13.812;2023-08-31T00:53:05;5.45;;;3.50;;
39104;SDS011;46464;51.154;13.812;2023-08-31T00:55:32;4.00;;;3.22;;
39104;SDS011;46464;51.154;13.812;2023-08-31T00:57:59;4.47;;;3.58;;
39104;SDS011;46464;51.154;13.812;2023-08-31T01:03:05;4.50;;;3.97;;
39104;SDS011;46464;51.154;13.812;2023-08-31T01:05:44;4.63;;;3.72;;
39104;SDS011;46464;51.154;13.812;2023-08-31T01:10:58;6.85;;;5.28;;
39104;SDS011;46464;51.154;13.812;2023-08-31T01:13:34;6.18;;;4.55;;
39104;SDS011;46464;51.154;13.812;2023-08-31T01:16:05;5.70;;;5.00;;
39104;SDS011;46464;51.154;13.812;2023-08-31T01:18:34;5.15;;;4.55;;
39104;SDS011;46464;51.154;13.812;2023-08-31T01:21:17;4.65;;;4.10;;
39104;SDS011;46464;51.154;13.812;2023-08-31T01:23:53;5.55;;;3.42;;
39104;SDS011;46464;51.154;13.812;2023-08-31T01:26:22;6.95;;;4.00;;
39104;SDS011;46464;51.154;13.812;2023-08-31T01:28:49;5.38;;;4.07;;
39104;SDS011;46464;51.154;13.812;2023-08-31T01:31:17;4.22;;;3.83;;
39104;SDS011;46464;51.154;13.812;2023-08-31T01:33:44;4.80;;;4.00;;
39104;SDS011;46464;51.154;13.812;2023-08-31T01:36:22;5.60;;;3.70;;
39104;SDS011;46464;51.154;13.812;2023-08-31T01:38:55;4.75;;;3.30;;
39104;SDS011;46464;51.154;13.812;2023-08-31T01:41:29;4.10;;;3.25;;
39104;SDS011;46464;51.154;13.812;2023-08-31T01:44:00;4.28;;;3.35;;
39104;SDS011;46464;51.154;13.812;2023-08-31T01:46:28;4.22;;;2.95;;
39104;SDS011;46464;51.154;13.812;2023-08-31T01:48:56;4.13;;;3.10;;
39104;SDS011;46464;51.154;13.812;2023-08-31T01:51:23;6.18;;;3.25;;
39104;SDS011;46464;51.154;13.812;2023-08-31T01:53:49;3.47;;;3.03;;
39104;SDS011;46464;51.154;13.812;2023-08-31T01:56:16;4.72;;;3.17;;
39104;SDS011;46464;51.154;13.812;2023-08-31T01:58:42;3.42;;;2.67;;
39104;SDS011;46464;51.154;13.812;2023-08-31T02:01:09;7.53;;;2.92;;
39104;SDS011;46464;51.154;13.812;2023-08-31T02:03:35;3.92;;;3.05;;
39104;SDS011;46464;51.154;13.812;2023-08-31T02:06:02;4.65;;;3.25;;
39104;SDS011;46464;51.154;13.812;2023-08-31T02:08:30;4.78;;;2.97;;
39104;SDS011;46464;51.154;13.812;2023-08-31T02:10:56;4.38;;;3.08;;
39104;SDS011;46464;51.154;13.812;2023-08-31T02:13:23;3.85;;;2.85;;
39104;SDS011;46464;51.154;13.812;2023-08-31T02:15:52;3.72;;;2.28;;
39104;SDS011;46464;51.154;13.812;2023-08-31T02:18:20;3.33;;;2.30;;
39104;SDS011;46464;51.154;13.812;2023-08-31T02:20:46;2.72;;;1.92;;
39104;SDS011;46464;51.154;13.812;2023-08-31T02:23:13;2.30;;;1.45;;
39104;SDS011;46464;51.154;13.812;2023-08-31T02:28:06;3.05;;;1.70;;
39104;SDS011;46464;51.154;13.812;2023-08-31T02:30:33;3.50;;;1.33;;
39104;SDS011;46464;51.154;13.812;2023-08-31T02:32:59;2.25;;;1.10;;
39104;SDS011;46464;51.154;13.812;2023-08-31T02:35:26;1.80;;;1.20;;
39104;SDS011;46464;51.154;13.812;2023-08-31T02:37:52;1.40;;;0.95;;
39104;SDS011;46464;51.154;13.812;2023-08-31T02:40:19;1.60;;;1.00;;
39104;SDS011;46464;51.154;13.812;2023-08-31T02:42:50;2.83;;;1.10;;
39104;SDS011;46464;51.154;13.812;2023-08-31T02:45:18;2.47;;;1.10;;
39104;SDS011;46464;51.154;13.812;2023-08-31T02:47:45;1.88;;;0.98;;
39104;SDS011;46464;51.154;13.812;2023-08-31T02:50:11;2.10;;;1.02;;
39104;SDS011;46464;51.154;13.812;2023-08-31T02:52:39;3.00;;;1.52;;
39104;SDS011;46464;51.154;13.812;2023-08-31T02:55:06;1.92;;;1.00;;
39104;SDS011;46464;51.154;13.812;2023-08-31T02:57:32;1.42;;;0.80;;
39104;SDS011;46464;51.154;13.812;2023-08-31T02:59:59;2.85;;;0.95;;
39104;SDS011;46464;51.154;13.812;2023-08-31T03:04:52;1.75;;;1.00;;
39104;SDS011;46464;51.154;13.812;2023-08-31T03:09:48;2.70;;;1.00;;
39104;SDS011;46464;51.154;13.812;2023-08-31T03:12:16;1.52;;;0.98;;
39104;SDS011;46464;51.154;13.812;2023-08-31T03:14:42;3.58;;;1.10;;
39104;SDS011;46464;51.154;13.812;2023-08-31T03:17:09;2.63;;;1.00;;
39104;SDS011;46464;51.154;13.812;2023-08-31T03:19:35;3.20;;;1.00;;
39104;SDS011;46464;51.154;13.812;2023-08-31T03:22:02;3.08;;;0.88;;
39104;SDS011;46464;51.154;13.812;2023-08-31T03:24:28;3.45;;;0.80;;
39104;SDS011;46464;51.154;13.812;2023-08-31T03:26:55;2.22;;;1.00;;
39104;SDS011;46464;51.154;13.812;2023-08-31T03:29:21;1.50;;;0.90;;
39104;SDS011;46464;51.154;13.812;2023-08-31T03:31:48;1.85;;;0.88;;
39104;SDS011;46464;51.154;13.812;2023-08-31T03:34:14;2.08;;;0.93;;
39104;SDS011;46464;51.154;13.812;2023-08-31T03:36:41;2.70;;;1.27;;
39104;SDS011;46464;51.154;13.812;2023-08-31T03:39:07;3.20;;;0.90;;
39104;SDS011;46464;51.154;13.812;2023-08-31T03:41:35;2.25;;;1.13;;
39104;SDS011;46464;51.154;13.812;2023-08-31T03:44:02;1.98;;;0.90;;
39104;SDS011;46464;51.154;13.812;2023-08-31T03:46:28;3.25;;;0.95;;
39104;SDS011;46464;51.154;13.812;2023-08-31T03:53:48;1.80;;;1.00;;
39104;SDS011;46464;51.154;13.812;2023-08-31T03:56:14;2.72;;;1.17;;
39104;SDS011;46464;51.154;13.812;2023-08-31T03:58:41;1.38;;;0.80;;
39104;SDS011;46464;51.154;13.812;2023-08-31T04:01:08;2.33;;;1.30;;
39104;SDS011;46464;51.154;13.812;2023-08-31T04:03:36;2.97;;;1.02;;
39104;SDS011;46464;51.154;13.812;2023-08-31T04:06:03;2.10;;;1.15;;
39104;SDS011;46464;51.154;13.812;2023-08-31T04:08:31;2.00;;;1.15;;
39104;SDS011;46464;51.154;13.812;2023-08-31T04:11:03;1.80;;;1.00;;
39104;SDS011;46464;51.154;13.812;2023-08-31T04:13:30;2.50;;;1.20;;
39104;SDS011;46464;51.154;13.812;2023-08-31T04:15:56;2.42;;;1.08;;
39104;SDS011;46464;51.154;13.812;2023-08-31T04:18:23;2.22;;;1.20;;
39104;SDS011;46464;51.154;13.812;2023-08-31T04:20:50;2.03;;;1.20;;
39104;SDS011;46464;51.154;13.812;2023-08-31T04:23:18;2.63;;;1.40;;
39104;SDS011;46464;51.154;13.812;2023-08-31T04:25:46;2.15;;;1.15;;
39104;SDS011;46464;51.154;13.812;2023-08-31T04:28:13;1.98;;;1.10;;
39104;SDS011;46464;51.154;13.812;2023-08-31T04:30:40;2.45;;;1.17;;
39104;SDS011;46464;51.154;13.812;2023-08-31T04:33:07;1.75;;;1.05;;
39104;SDS011;46464;51.154;13.812;2023-08-31T04:35:33;2.90;;;1.00;;
39104;SDS011;46464;51.154;13.812;2023-08-31T04:38:00;2.42;;;1.08;;
39104;SDS011;46464;51.154;13.812;2023-08-31T04:40:27;2.40;;;1.30;;
39104;SDS011;46464;51.154;13.812;2023-08-31T04:42:57;1.63;;;1.00;;
39104;SDS011;46464;51.154;13.812;2023-08-31T04:45:23;2.97;;;1.40;;
39104;SDS011;46464;51.154;13.812;2023-08-31T04:47:50;2.20;;;1.20;;
39104;SDS011;46464;51.154;13.812;2023-08-31T04:50:17;2.28;;;1.20;;
39104;SDS011;46464;51.154;13.812;2023-08-31T04:52:44;1.98;;;1.20;;
39104;SDS011;46464;51.154;13.812;2023-08-31T04:55:12;2.78;;;1.30;;
39104;SDS011;46464;51.154;13.812;2023-08-31T04:57:39;2.65;;;1.35;;
39104;SDS011;46464;51.154;13.812;2023-08-31T05:00:06;2.28;;;1.35;;
39104;SDS011;46464;51.154;13.812;2023-08-31T05:02:35;3.65;;;1.55;;
39104;SDS011;46464;51.154;13.812;2023-08-31T05:05:02;2.60;;;1.02;;
39104;SDS011;46464;51.154;13.812;2023-08-31T05:07:30;1.85;;;1.17;;
39104;SDS011;46464;51.154;13.812;2023-08-31T05:09:56;2.53;;;1.42;;
39104;SDS011;46464;51.154;13.812;2023-08-31T05:12:23;3.33;;;1.70;;
39104;SDS011;46464;51.154;13.812;2023-08-31T05:14:49;3.35;;;1.60;;
39104;SDS011;46464;51.154;13.812;2023-08-31T05:17:16;3.85;;;1.92;;
39104;SDS011;46464;51.154;13.812;2023-08-31T05:19:42;5.22;;;1.60;;
39104;SDS011;46464;51.154;13.812;2023-08-31T05:22:09;3.30;;;2.10;;
39104;SDS011;46464;51.154;13.812;2023-08-31T05:24:36;3.25;;;1.92;;
39104;SDS011;46464;51.154;13.812;2023-08-31T05:27:02;3.78;;;2.10;;
39104;SDS011;46464;51.154;13.812;2023-08-31T05:29:29;4.65;;;2.00;;
39104;SDS011;46464;51.154;13.812;2023-08-31T05:31:56;4.40;;;1.92;;
39104;SDS011;46464;51.154;13.812;2023-08-31T05:34:22;3.88;;;1.90;;
39104;SDS011;46464;51.154;13.812;2023-08-31T05:36:51;3.67;;;1.60;;
39104;SDS011;46464;51.154;13.812;2023-08-31T05:39:18;4.32;;;2.10;;
39104;SDS011;46464;51.154;13.812;2023-08-31T05:41:45;4.93;;;2.20;;
39104;SDS011;46464;51.154;13.812;2023-08-31T05:44:11;3.15;;;2.15;;
39104;SDS011;46464;51.154;13.812;2023-08-31T05:46:38;4.50;;;2.20;;
39104;SDS011;46464;51.154;13.812;2023-08-31T05:49:07;11.57;;;2.58;;
39104;SDS011;46464;51.154;13.812;2023-08-31T05:51:34;4.78;;;2.72;;
39104;SDS011;46464;51.154;13.812;2023-08-31T05:54:01;4.15;;;2.67;;
39104;SDS011;46464;51.154;13.812;2023-08-31T05:56:27;4.97;;;2.53;;
39104;SDS011;46464;51.154;13.812;2023-08-31T05:58:54;5.63;;;2.85;;
39104;SDS011;46464;51.154;13.812;2023-08-31T06:01:22;4.75;;;2.85;;
39104;SDS011;46464;51.154;13.812;2023-08-31T06:03:48;6.18;;;2.97;;
39104;SDS011;46464;51.154;13.812;2023-08-31T06:06:15;4.35;;;2.67;;
39104;SDS011;46464;51.154;13.812;2023-08-31T06:08:42;4.38;;;2.55;;
39104;SDS011;46464;51.154;13.812;2023-08-31T06:11:09;6.07;;;2.83;;
39104;SDS011;46464;51.154;13.812;2023-08-31T06:16:03;4.50;;;2.72;;
39104;SDS011;46464;51.154;13.812;2023-08-31T06:18:30;6.97;;;3.35;;
39104;SDS011;46464;51.154;13.812;2023-08-31T06:25:50;5.35;;;2.88;;
39104;SDS011;46464;51.154;13.812;2023-08-31T06:28:16;4.60;;;2.65;;
39104;SDS011;46464;51.154;13.812;2023-08-31T06:30:43;4.20;;;2.63;;
39104;SDS011;46464;51.154;13.812;2023-08-31T06:33:14;4.65;;;2.80;;
39104;SDS011;46464;51.154;13.812;2023-08-31T06:35:41;5.00;;;2.65;;
39104;SDS011;46464;51.154;13.812;2023-08-31T06:38:08;4.97;;;2.50;;
39104;SDS011;46464;51.154;13.812;2023-08-31T06:40:34;6.93;;;2.75;;
39104;SDS011;46464;51.154;13.812;2023-08-31T06:43:01;4.78;;;2.47;;
39104;SDS011;46464;51.154;13.812;2023-08-31T06:50:20;3.70;;;2.72;;
39104;SDS011;46464;51.154;13.812;2023-08-31T06:52:47;7.05;;;2.92;;
39104;SDS011;46464;51.154;13.812;2023-08-31T06:57:40;6.45;;;2.67;;
39104;SDS011;46464;51.154;13.812;2023-08-31T07:00:08;6.45;;;3.70;;
39104;SDS011;46464;51.154;13.812;2023-08-31T07:02:36;5.72;;;3.03;;
39104;SDS011;46464;51.154;13.812;2023-08-31T07:05:06;10.13;;;3.55;;
39104;SDS011;46464;51.154;13.812;2023-08-31T07:07:32;5.18;;;2.67;;
39104;SDS011;46464;51.154;13.812;2023-08-31T07:09:59;5.55;;;3.03;;
39104;SDS011;46464;51.154;13.812;2023-08-31T07:12:26;4.18;;;2.78;;
39104;SDS011;46464;51.154;13.812;2023-08-31T07:14:52;6.05;;;2.80;;
39104;SDS011;46464;51.154;13.812;2023-08-31T07:17:19;6.18;;;3.10;;
39104;SDS011;46464;51.154;13.812;2023-08-31T07:19:47;6.25;;;3.22;;
39104;SDS011;46464;51.154;13.812;2023-08-31T07:22:13;6.95;;;2.80;;
39104;SDS011;46464;51.154;13.812;2023-08-31T07:24:40;5.10;;;2.70;;
39104;SDS011;46464;51.154;13.812;2023-08-31T07:27:06;4.55;;;2.72;;
39104;SDS011;46464;51.154;13.812;2023-08-31T07:29:33;4.15;;;2.70;;
39104;SDS011;46464;51.154;13.812;2023-08-31T07:31:59;4.63;;;3.20;;
39104;SDS011;46464;51.154;13.812;2023-08-31T07:34:26;5.63;;;2.80;;
39104;SDS011;46464;51.154;13.812;2023-08-31T07:36:53;4.88;;;3.05;;
39104;SDS011;46464;51.154;13.812;2023-08-31T07:39:19;5.50;;;2.97;;
39104;SDS011;46464;51.154;13.812;2023-08-31T07:41:46;6.68;;;2.80;;
39104;SDS011;46464;51.154;13.812;2023-08-31T07:44:12;5.10;;;3.03;;
39104;SDS011;46464;51.154;13.812;2023-08-31T07:46:39;3.67;;;2.30;;
39104;SDS011;46464;51.154;13.812;2023-08-31T07:49:06;6.25;;;2.20;;
39104;SDS011;46464;51.154;13.812;2023-08-31T07:51:32;6.63;;;3.40;;
39104;SDS011;46464;51.154;13.812;2023-08-31T07:56:26;4.00;;;2.50;;
39104;SDS011;46464;51.154;13.812;2023-08-31T08:01:19;4.95;;;2.47;;
39104;SDS011;46464;51.154;13.812;2023-08-31T08:03:46;4.25;;;2.20;;
39104;SDS011;46464;51.154;13.812;2023-08-31T08:06:13;7.28;;;2.47;;
39104;SDS011;46464;51.154;13.812;2023-08-31T08:08:40;4.30;;;2.03;;
39104;SDS011;46464;51.154;13.812;2023-08-31T08:11:07;4.22;;;1.88;;
39104;SDS011;46464;51.154;13.812;2023-08-31T08:13:34;5.75;;;2.15;;
39104;SDS011;46464;51.154;13.812;2023-08-31T08:16:01;4.38;;;2.13;;
39104;SDS011;46464;51.154;13.812;2023-08-31T08:18:27;2.80;;;1.52;;
39104;SDS011;46464;51.154;13.812;2023-08-31T08:20:54;4.03;;;1.90;;
39104;SDS011;46464;51.154;13.812;2023-08-31T08:23:20;3.80;;;1.85;;
39104;SDS011;46464;51.154;13.812;2023-08-31T08:25:48;5.88;;;2.08;;
39104;SDS011;46464;51.154;13.812;2023-08-31T08:28:14;6.38;;;1.80;;
39104;SDS011;46464;51.154;13.812;2023-08-31T08:30:41;3.13;;;1.45;;
39104;SDS011;46464;51.154;13.812;2023-08-31T08:33:08;2.80;;;1.52;;
39104;SDS011;46464;51.154;13.812;2023-08-31T08:35:39;3.70;;;1.75;;
39104;SDS011;46464;51.154;13.812;2023-08-31T08:38:05;3.72;;;1.85;;
39104;SDS011;46464;51.154;13.812;2023-08-31T08:40:32;4.88;;;2.42;;
39104;SDS011;46464;51.154;13.812;2023-08-31T08:43:00;3.65;;;1.60;;
39104;SDS011;46464;51.154;13.812;2023-08-31T08:45:37;4.47;;;1.70;;
39104;SDS011;46464;51.154;13.812;2023-08-31T08:48:06;4.93;;;1.98;;
39104;SDS011;46464;51.154;13.812;2023-08-31T08:50:34;5.07;;;1.75;;
39104;SDS011;46464;51.154;13.812;2023-08-31T08:53:02;3.05;;;1.73;;
39104;SDS011;46464;51.154;13.812;2023-08-31T08:55:29;3.72;;;1.63;;
39104;SDS011;46464;51.154;13.812;2023-08-31T08:57:57;7.57;;;1.80;;
39104;SDS011;46464;51.154;13.812;2023-08-31T09:00:26;6.03;;;1.85;;
39104;SDS011;46464;51.154;13.812;2023-08-31T09:02:54;3.45;;;1.80;;
39104;SDS011;46464;51.154;13.812;2023-08-31T09:05:22;3.72;;;1.95;;
39104;SDS011;46464;51.154;13.812;2023-08-31T09:08:00;4.57;;;2.13;;
39104;SDS011;46464;51.154;13.812;2023-08-31T09:10:40;4.73;;;2.97;;
39104;SDS011;46464;51.154;13.812;2023-08-31T09:13:09;4.20;;;2.10;;
39104;SDS011;46464;51.154;13.812;2023-08-31T09:15:43;5.20;;;2.10;;
39104;SDS011;46464;51.154;13.812;2023-08-31T09:18:24;4.57;;;1.90;;
39104;SDS011;46464;51.154;13.812;2023-08-31T09:20:51;5.55;;;2.00;;
39104;SDS011;46464;51.154;13.812;2023-08-31T09:23:19;3.85;;;1.80;;
39104;SDS011;46464;51.154;13.812;2023-08-31T09:25:47;4.85;;;2.15;;
39104;SDS011;46464;51.154;13.812;2023-08-31T09:28:18;3.97;;;1.90;;
39104;SDS011;46464;51.154;13.812;2023-08-31T09:30:46;3.63;;;1.80;;
39104;SDS011;46464;51.154;13.812;2023-08-31T09:33:14;9.45;;;3.58;;
39104;SDS011;46464;51.154;13.812;2023-08-31T09:38:18;4.45;;;2.08;;
39104;SDS011;46464;51.154;13.812;2023-08-31T09:43:12;4.93;;;1.80;;
39104;SDS011;46464;51.154;13.812;2023-08-31T09:45:44;3.72;;;2.10;;
39104;SDS011;46464;51.154;13.812;2023-08-31T09:48:12;7.40;;;2.00;;
39104;SDS011;46464;51.154;13.812;2023-08-31T09:50:42;3.30;;;2.17;;
39104;SDS011;46464;51.154;13.812;2023-08-31T09:53:11;5.22;;;2.47;;
39104;SDS011;46464;51.154;13.812;2023-08-31T09:55:41;3.95;;;1.83;;
39104;SDS011;46464;51.154;13.812;2023-08-31T09:58:12;5.43;;;2.03;;
39104;SDS011;46464;51.154;13.812;2023-08-31T10:00:42;4.40;;;2.15;;
39104;SDS011;46464;51.154;13.812;2023-08-31T10:03:10;6.20;;;2.50;;
39104;SDS011;46464;51.154;13.812;2023-08-31T10:05:45;4.05;;;2.13;;
39104;SDS011;46464;51.154;13.812;2023-08-31T10:08:12;4.03;;;2.10;;
39104;SDS011;46464;51.154;13.812;2023-08-31T10:10:40;1.92;;;1.42;;
39104;SDS011;46464;51.154;13.812;2023-08-31T10:13:07;3.53;;;1.67;;
39104;SDS011;46464;51.154;13.812;2023-08-31T10:15:35;3.55;;;2.03;;
39104;SDS011;46464;51.154;13.812;2023-08-31T10:18:03;3.95;;;1.90;;
39104;SDS011;46464;51.154;13.812;2023-08-31T10:20:31;3.05;;;2.00;;
39104;SDS011;46464;51.154;13.812;2023-08-31T10:23:00;4.50;;;2.00;;
39104;SDS011;46464;51.154;13.812;2023-08-31T10:26:12;3.83;;;2.10;;
39104;SDS011;46464;51.154;13.812;2023-08-31T10:28:21;4.93;;;2.40;;
39104;SDS011;46464;51.154;13.812;2023-08-31T10:33:35;3.70;;;2.00;;
39104;SDS011;46464;51.154;13.812;2023-08-31T10:36:09;5.82;;;2.25;;
39104;SDS011;46464;51.154;13.812;2023-08-31T10:38:44;5.15;;;1.90;;
39104;SDS011;46464;51.154;13.812;2023-08-31T10:51:37;3.63;;;1.52;;
39104;SDS011;46464;51.154;13.812;2023-08-31T10:59:26;4.72;;;1.60;;
39104;SDS011;46464;51.154;13.812;2023-08-31T11:02:07;4.18;;;1.70;;
39104;SDS011;46464;51.154;13.812;2023-08-31T11:04:52;4.70;;;1.50;;
39104;SDS011;46464;51.154;13.812;2023-08-31T11:07:23;3.38;;;1.50;;
39104;SDS011;46464;51.154;13.812;2023-08-31T11:09:51;9.05;;;2.10;;
39104;SDS011;46464;51.154;13.812;2023-08-31T11:12:21;5.40;;;1.55;;
39104;SDS011;46464;51.154;13.812;2023-08-31T11:14:48;3.53;;;1.50;;
39104;SDS011;46464;51.154;13.812;2023-08-31T11:17:15;3.65;;;1.38;;
39104;SDS011;46464;51.154;13.812;2023-08-31T11:19:42;4.32;;;1.25;;
39104;SDS011;46464;51.154;13.812;2023-08-31T11:22:10;3.42;;;1.00;;
39104;SDS011;46464;51.154;13.812;2023-08-31T11:24:38;3.47;;;1.00;;
39104;SDS011;46464;51.154;13.812;2023-08-31T11:27:07;1.75;;;1.10;;
39104;SDS011;46464;51.154;13.812;2023-08-31T11:29:36;2.42;;;0.88;;
39104;SDS011;46464;51.154;13.812;2023-08-31T11:32:04;1.73;;;0.90;;
39104;SDS011;46464;51.154;13.812;2023-08-31T11:36:57;7.43;;;0.90;;
39104;SDS011;46464;51.154;13.812;2023-08-31T11:39:25;1.33;;;0.80;;
39104;SDS011;46464;51.154;13.812;2023-08-31T11:41:51;3.28;;;0.90;;
39104;SDS011;46464;51.154;13.812;2023-08-31T11:44:18;1.58;;;0.90;;
39104;SDS011;46464;51.154;13.812;2023-08-31T11:46:45;4.28;;;1.20;;
39104;SDS011;46464;51.154;13.812;2023-08-31T11:49:17;2.22;;;1.00;;
39104;SDS011;46464;51.154;13.812;2023-08-31T11:51:45;2.00;;;1.10;;
39104;SDS011;46464;51.154;13.812;2023-08-31T11:54:17;1.40;;;0.90;;
39104;SDS011;46464;51.154;13.812;2023-08-31T11:56:44;2.40;;;1.10;;
39104;SDS011;46464;51.154;13.812;2023-08-31T11:59:17;2.25;;;1.30;;
39104;SDS011;46464;51.154;13.812;2023-08-31T12:01:45;3.63;;;1.30;;
39104;SDS011;46464;51.154;13.812;2023-08-31T12:04:15;2.70;;;1.35;;
39104;SDS011;46464;51.154;13.812;2023-08-31T12:06:45;1.48;;;0.60;;
39104;SDS011;46464;51.154;13.812;2023-08-31T12:09:13;2.67;;;0.60;;
39104;SDS011;46464;51.154;13.812;2023-08-31T12:11:40;2.42;;;0.70;;
39104;SDS011;46464;51.154;13.812;2023-08-31T12:14:22;3.17;;;1.00;;
39104;SDS011;46464;51.154;13.812;2023-08-31T12:16:50;3.60;;;0.82;;
39104;SDS011;46464;51.154;13.812;2023-08-31T12:19:18;1.60;;;0.65;;
39104;SDS011;46464;51.154;13.812;2023-08-31T12:21:45;1.65;;;0.80;;
39104;SDS011;46464;51.154;13.812;2023-08-31T12:24:13;2.00;;;0.60;;
39104;SDS011;46464;51.154;13.812;2023-08-31T12:26:40;2.65;;;0.73;;
39104;SDS011;46464;51.154;13.812;2023-08-31T12:31:33;1.67;;;0.80;;
39104;SDS011;46464;51.154;13.812;2023-08-31T12:36:26;2.75;;;1.20;;
39104;SDS011;46464;51.154;13.812;2023-08-31T12:38:53;5.28;;;1.17;;
39104;SDS011;46464;51.154;13.812;2023-08-31T12:41:19;2.20;;;0.88;;
39104;SDS011;46464;51.154;13.812;2023-08-31T12:43:50;3.05;;;1.08;;
39104;SDS011;46464;51.154;13.812;2023-08-31T12:46:16;4.88;;;0.88;;
39104;SDS011;46464;51.154;13.812;2023-08-31T12:48:43;2.55;;;1.00;;
39104;SDS011;46464;51.154;13.812;2023-08-31T12:51:09;1.48;;;0.80;;
39104;SDS011;46464;51.154;13.812;2023-08-31T12:53:39;1.92;;;0.90;;
39104;SDS011;46464;51.154;13.812;2023-08-31T12:56:06;1.40;;;0.80;;
39104;SDS011;46464;51.154;13.812;2023-08-31T12:58:32;1.80;;;0.80;;
39104;SDS011;46464;51.154;13.812;2023-08-31T13:00:59;2.55;;;0.80;;
39104;SDS011;46464;51.154;13.812;2023-08-31T13:05:52;3.30;;;0.90;;
39104;SDS011;46464;51.154;13.812;2023-08-31T13:08:19;1.85;;;0.70;;
39104;SDS011;46464;51.154;13.812;2023-08-31T13:10:52;2.30;;;0.85;;
39104;SDS011;46464;51.154;13.812;2023-08-31T13:13:21;3.35;;;1.00;;
39104;SDS011;46464;51.154;13.812;2023-08-31T13:15:50;2.50;;;1.20;;
39104;SDS011;46464;51.154;13.812;2023-08-31T13:18:17;2.90;;;0.80;;
39104;SDS011;46464;51.154;13.812;2023-08-31T13:20:53;2.45;;;0.80;;
39104;SDS011;46464;51.154;13.812;2023-08-31T13:23:20;2.13;;;0.80;;
39104;SDS011;46464;51.154;13.812;2023-08-31T13:25:48;5.18;;;1.05;;
39104;SDS011;46464;51.154;13.812;2023-08-31T13:28:16;3.42;;;0.90;;
39104;SDS011;46464;51.154;13.812;2023-08-31T13:30:43;2.08;;;0.80;;
39104;SDS011;46464;51.154;13.812;2023-08-31T13:33:10;3.58;;;1.08;;
39104;SDS011;46464;51.154;13.812;2023-08-31T13:35:36;2.80;;;1.33;;
39104;SDS011;46464;51.154;13.812;2023-08-31T13:38:03;2.42;;;0.80;;
39104;SDS011;46464;51.154;13.812;2023-08-31T13:40:30;3.83;;;1.08;;
39104;SDS011;46464;51.154;13.812;2023-08-31T13:42:57;1.98;;;1.02;;
39104;SDS011;46464;51.154;13.812;2023-08-31T13:45:29;1.48;;;0.70;;
39104;SDS011;46464;51.154;13.812;2023-08-31T13:47:57;2.40;;;1.15;;
39104;SDS011;46464;51.154;13.812;2023-08-31T13:50:27;2.60;;;1.00;;
39104;SDS011;46464;51.154;13.812;2023-08-31T13:52:53;3.33;;;1.33;;
39104;SDS011;46464;51.154;13.812;2023-08-31T13:57:46;4.50;;;1.02;;
39104;SDS011;46464;51.154;13.812;2023-08-31T14:00:13;2.47;;;1.10;;
39104;SDS011;46464;51.154;13.812;2023-08-31T14:02:41;5.72;;;1.92;;
39104;SDS011;46464;51.154;13.812;2023-08-31T14:05:10;3.28;;;1.10;;
39104;SDS011;46464;51.154;13.812;2023-08-31T14:07:37;1.67;;;0.75;;
39104;SDS011;46464;51.154;13.812;2023-08-31T14:10:04;4.15;;;1.10;;
39104;SDS011;46464;51.154;13.812;2023-08-31T14:12:34;1.77;;;0.90;;
39104;SDS011;46464;51.154;13.812;2023-08-31T14:17:30;1.98;;;1.00;;
39104;SDS011;46464;51.154;13.812;2023-08-31T14:20:00;2.35;;;0.90;;
39104;SDS011;46464;51.154;13.812;2023-08-31T14:22:27;3.08;;;1.15;;
39104;SDS011;46464;51.154;13.812;2023-08-31T14:24:55;2.33;;;1.00;;
39104;SDS011;46464;51.154;13.812;2023-08-31T14:27:21;2.72;;;0.88;;
39104;SDS011;46464;51.154;13.812;2023-08-31T14:29:49;3.33;;;1.40;;
39104;SDS011;46464;51.154;13.812;2023-08-31T14:32:16;2.75;;;1.20;;
39104;SDS011;46464;51.154;13.812;2023-08-31T14:34:42;2.55;;;1.10;;
39104;SDS011;46464;51.154;13.812;2023-08-31T14:37:09;1.73;;;0.93;;
39104;SDS011;46464;51.154;13.812;2023-08-31T14:39:35;1.38;;;0.73;;
39104;SDS011;46464;51.154;13.812;2023-08-31T14:42:02;3.22;;;1.13;;
39104;SDS011;46464;51.154;13.812;2023-08-31T14:44:29;3.28;;;1.13;;
39104;SDS011;46464;51.154;13.812;2023-08-31T14:46:55;2.40;;;0.85;;
39104;SDS011;46464;51.154;13.812;2023-08-31T14:49:22;2.97;;;0.90;;
39104;SDS011;46464;51.154;13.812;2023-08-31T14:51:51;3.10;;;0.93;;
39104;SDS011;46464;51.154;13.812;2023-08-31T14:54:18;4.50;;;0.88;;
39104;SDS011;46464;51.154;13.812;2023-08-31T14:56:44;1.50;;;0.60;;
39104;SDS011;46464;51.154;13.812;2023-08-31T14:59:11;2.42;;;0.93;;
39104;SDS011;46464;51.154;13.812;2023-08-31T15:01:38;2.25;;;0.93;;
39104;SDS011;46464;51.154;13.812;2023-08-31T15:04:04;1.83;;;0.70;;
39104;SDS011;46464;51.154;13.812;2023-08-31T15:09:54;6.57;;;0.70;;
39104;SDS011;46464;51.154;13.812;2023-08-31T15:12:21;3.38;;;1.00;;
39104;SDS011;46464;51.154;13.812;2023-08-31T15:14:48;1.73;;;0.63;;
39104;SDS011;46464;51.154;13.812;2023-08-31T15:17:14;2.75;;;0.80;;
39104;SDS011;46464;51.154;13.812;2023-08-31T15:19:41;2.65;;;0.80;;
39104;SDS011;46464;51.154;13.812;2023-08-31T15:22:07;2.20;;;0.68;;
39104;SDS011;46464;51.154;13.812;2023-08-31T15:24:34;3.38;;;0.80;;
39104;SDS011;46464;51.154;13.812;2023-08-31T15:27:02;0.60;;;0.45;;
39104;SDS011;46464;51.154;13.812;2023-08-31T15:29:29;5.28;;;0.90;;
39104;SDS011;46464;51.154;13.812;2023-08-31T15:31:57;3.90;;;0.85;;
39104;SDS011;46464;51.154;13.812;2023-08-31T15:36:50;1.98;;;0.63;;
39104;SDS011;46464;51.154;13.812;2023-08-31T15:39:17;2.00;;;0.65;;
39104;SDS011;46464;51.154;13.812;2023-08-31T15:44:10;4.20;;;0.95;;
39104;SDS011;46464;51.154;13.812;2023-08-31T15:49:03;3.22;;;1.00;;
39104;SDS011;46464;51.154;13.812;2023-08-31T15:51:30;2.65;;;0.90;;
39104;SDS011;46464;51.154;13.812;2023-08-31T15:53:59;3.70;;;0.90;;
39104;SDS011;46464;51.154;13.812;2023-08-31T15:56:30;2.22;;;0.80;;
39104;SDS011;46464;51.154;13.812;2023-08-31T15:58:57;4.25;;;1.13;;
39104;SDS011;46464;51.154;13.812;2023-08-31T16:01:24;2.45;;;0.80;;
39104;SDS011;46464;51.154;13.812;2023-08-31T16:03:52;2.08;;;0.70;;
39104;SDS011;46464;51.154;13.812;2023-08-31T16:06:18;3.45;;;1.15;;